Time;durP1;ratioP1;P1;durP2;ratioP2;P2;SDS_P1;SDS_P2;PMS_P1;PMS_P2;Temp;Humidity;BMP_temperature;BMP_pressure;BME280_temperature;BME280_humidity;BME280_pressure;Samples;Min_cycle;Max_cycle;Signal;HPM_P1;HPM_P2
2022/02/22 00:00:02;;;;;;;567.53;538.72;;;;;;;6.32;66.87;99823.59;688992;28;92288;-72
2022/02/22 00:00:33;;;;;;;606.35;575.28;;;;;;;6.32;66.83;99823.59;686431;28;160198;-72
2022/02/22 00:00:54;;;;;;;579.25;549.75;;;;;;;6.31;67.06;99827.28;690482;28;46330;-72
2022/02/22 00:01:15;;;;;;;553.22;525.22;;;;;;;6.31;66.87;99821.91;691183;28;23300;-72
2022/02/22 00:01:37;;;;;;;555.15;527.05;;;;;;;6.32;66.96;99825.44;663899;28;44377;-71
2022/02/22 00:01:59;;;;;;;572.70;543.58;;;;;;;6.34;67.21;99818.06;690377;28;46327;-72
2022/02/22 00:02:20;;;;;;;561.60;533.25;;;;;;;6.35;67.00;99822.41;690291;28;44136;-71
2022/02/22 00:02:41;;;;;;;568.60;539.75;;;;;;;6.36;67.18;99825.94;686166;28;22383;-71
2022/02/22 00:03:03;;;;;;;614.15;582.42;;;;;;;6.38;67.02;99822.06;686849;28;23402;-71
2022/02/22 00:03:24;;;;;;;604.28;573.17;;;;;;;6.37;67.08;99822.25;686093;28;46311;-72
2022/02/22 00:03:46;;;;;;;582.78;553.05;;;;;;;6.38;67.07;99837.31;686867;28;22468;-72
2022/02/22 00:04:07;;;;;;;606.00;574.75;;;;;;;6.40;67.02;99835.31;686073;28;44386;-72
2022/02/22 00:04:33;;;;;;;603.40;572.50;;;;;;;6.40;66.96;99821.91;686990;28;21029;-71
2022/02/22 00:04:54;;;;;;;594.22;563.75;;;;;;;6.37;66.91;99822.25;687073;28;137971;-71
2022/02/22 00:05:15;;;;;;;600.45;569.60;;;;;;;6.35;67.07;99821.56;691283;28;22400;-72
2022/02/22 00:05:38;;;;;;;626.92;594.40;;;;;;;6.35;66.66;99818.88;690956;28;23488;-71
2022/02/22 00:06:00;;;;;;;596.90;566.17;;;;;;;6.36;67.00;99823.25;688627;28;69428;-71
2022/02/22 00:06:21;;;;;;;585.58;555.75;;;;;;;6.35;66.94;99832.28;689579;28;46588;-72
2022/02/22 00:06:42;;;;;;;579.35;549.92;;;;;;;6.33;67.15;99829.78;691211;28;22481;-71
2022/02/22 00:07:03;;;;;;;601.80;570.92;;;;;;;6.35;67.31;99829.59;690992;28;23421;-72
2022/02/22 00:07:25;;;;;;;567.33;538.65;;;;;;;6.35;67.05;99829.59;691618;28;14240;-72
2022/02/22 00:07:46;;;;;;;546.63;519.13;;;;;;;6.33;66.96;99827.09;689416;28;46308;-71
2022/02/22 00:08:07;;;;;;;564.97;536.38;;;;;;;6.36;67.01;99825.94;690846;28;21534;-71
2022/02/22 00:08:29;;;;;;;566.65;537.97;;;;;;;6.35;66.93;99829.59;690678;28;22198;-71
2022/02/22 00:08:51;;;;;;;548.33;520.67;;;;;;;6.34;67.18;99834.16;689744;28;45174;-72
2022/02/22 00:09:12;;;;;;;536.63;509.63;;;;;;;6.34;67.22;99836.84;690110;28;46308;-72
2022/02/22 00:09:33;;;;;;;570.67;541.72;;;;;;;6.32;66.96;99830.81;691071;28;23448;-72
2022/02/22 00:09:55;;;;;;;570.88;541.95;;;;;;;6.34;67.08;99831.47;690951;28;21535;-72
2022/02/22 00:10:18;;;;;;;555.50;527.60;;;;;;;6.36;67.13;99834.81;689282;28;69430;-72
2022/02/22 00:10:39;;;;;;;558.55;530.40;;;;;;;6.34;67.22;99833.31;690155;28;44347;-71
2022/02/22 00:11:00;;;;;;;600.15;569.42;;;;;;;6.34;67.07;99830.63;691271;28;23427;-71
2022/02/22 00:11:21;;;;;;;593.38;563.13;;;;;;;6.34;67.27;99830.63;690545;28;22359;-72
2022/02/22 00:11:43;;;;;;;572.50;543.53;;;;;;;6.32;67.18;99831.63;691210;28;21586;-72
2022/02/22 00:12:06;;;;;;;569.20;540.35;;;;;;;6.33;67.07;99832.47;689631;28;45183;-72
2022/02/22 00:12:27;;;;;;;572.67;543.60;;;;;;;6.30;66.96;99833.66;689419;28;67464;-72
2022/02/22 00:12:49;;;;;;;588.97;558.95;;;;;;;6.29;67.24;99836.50;691418;28;22425;-72
2022/02/22 00:13:10;;;;;;;636.03;602.83;;;;;;;6.29;67.30;99839.19;690372;28;45273;-72
2022/02/22 00:13:31;;;;;;;641.38;607.92;;;;;;;6.31;67.52;99831.81;691123;28;21508;-72
2022/02/22 00:13:53;;;;;;;617.20;585.38;;;;;;;6.30;67.50;99836.34;691133;28;22395;-72
2022/02/22 00:14:15;;;;;;;616.78;584.90;;;;;;;6.30;67.45;99835.50;690109;28;45265;-72
2022/02/22 00:14:36;;;;;;;632.33;599.47;;;;;;;6.29;67.29;99833.84;690201;28;44177;-72
2022/02/22 00:14:57;;;;;;;617.00;585.17;;;;;;;6.30;67.60;99838.16;691183;28;22386;-71
2022/02/22 00:15:18;;;;;;;625.10;592.60;;;;;;;6.28;67.48;99843.69;691220;28;22407;-72
2022/02/22 00:15:39;;;;;;;685.10;648.40;;;;;;;6.30;67.40;99846.22;687657;28;23456;-71
2022/02/22 00:16:01;;;;;;;681.75;645.30;;;;;;;6.29;67.51;99836.50;687760;28;22375;-72
2022/02/22 00:16:22;;;;;;;666.90;631.55;;;;;;;6.30;67.46;99835.50;686763;28;45268;-71
2022/02/22 00:16:43;;;;;;;647.65;613.72;;;;;;;6.30;67.38;99838.16;688225;28;22377;-71
2022/02/22 00:17:06;;;;;;;659.00;624.28;;;;;;;6.33;67.64;99837.81;688503;28;22403;-71
2022/02/22 00:17:28;;;;;;;690.05;653.05;;;;;;;6.32;67.25;99844.22;686511;28;67475;-71
2022/02/22 00:17:49;;;;;;;668.42;633.00;;;;;;;6.31;67.34;99838.00;690383;28;44377;-72
2022/02/22 00:18:10;;;;;;;652.50;618.20;;;;;;;6.32;67.36;99838.84;691284;28;22385;-71
2022/02/22 00:18:31;;;;;;;636.42;603.30;;;;;;;6.33;67.57;99845.88;690833;28;23460;-72
2022/02/22 00:18:53;;;;;;;666.05;630.70;;;;;;;6.35;67.61;99843.88;691272;28;23456;-72
2022/02/22 00:19:14;;;;;;;692.88;655.60;;;;;;;6.35;67.25;99837.66;690080;28;45178;-72
2022/02/22 00:19:35;;;;;;;677.38;641.28;;;;;;;6.34;67.27;99839.50;690365;28;23496;-72
2022/02/22 00:19:57;;;;;;;657.47;622.88;;;;;;;6.34;67.45;99841.38;691092;28;22378;-71
2022/02/22 00:20:18;;;;;;;678.65;642.40;;;;;;;6.36;67.43;99850.06;690436;28;45261;-71
2022/02/22 00:20:41;;;;;;;692.55;655.28;;;;;;;6.36;67.33;99850.91;690881;28;21524;-72
2022/02/22 00:21:02;;;;;;;672.13;636.47;;;;;;;6.35;67.14;99851.94;689218;28;69524;-71
2022/02/22 00:21:23;;;;;;;668.67;633.20;;;;;;;6.35;67.55;99848.38;690180;28;22411;-71
2022/02/22 00:21:44;;;;;;;715.33;676.22;;;;;;;6.34;67.38;99842.19;690692;28;23095;-72
2022/02/22 00:22:06;;;;;;;732.33;691.95;;;;;;;6.32;67.29;99845.03;690786;28;22401;-71
2022/02/22 00:22:27;;;;;;;707.70;669.33;;;;;;;6.32;67.29;99839.69;690243;28;44408;-71
2022/02/22 00:22:48;;;;;;;680.67;644.40;;;;;;;6.34;67.36;99850.25;691186;28;22383;-72
2022/02/22 00:23:10;;;;;;;732.80;692.38;;;;;;;6.35;67.58;99849.25;690630;28;46811;-71
2022/02/22 00:23:32;;;;;;;734.10;693.58;;;;;;;6.35;67.30;99849.25;691036;28;23453;-72
2022/02/22 00:23:53;;;;;;;719.35;680.05;;;;;;;6.35;67.32;99849.25;690219;28;45242;-71
2022/02/22 00:24:14;;;;;;;678.53;642.38;;;;;;;6.37;67.29;99854.44;690803;28;23496;-72
2022/02/22 00:24:35;;;;;;;705.13;667.00;;;;;;;6.37;67.47;99851.75;690695;28;22410;-72
2022/02/22 00:24:57;;;;;;;721.35;681.85;;;;;;;6.38;67.50;99856.09;690695;28;23629;-72
2022/02/22 00:25:18;;;;;;;700.97;663.17;;;;;;;6.39;67.61;99850.56;690406;28;46391;-72
2022/02/22 00:25:39;;;;;;;674.28;638.50;;;;;;;6.42;67.66;99855.56;690304;28;21394;-71
2022/02/22 00:26:00;;;;;;;698.78;660.97;;;;;;;6.43;67.34;99854.56;690710;28;22386;-72
2022/02/22 00:26:22;;;;;;;706.47;668.22;;;;;;;6.41;67.54;99856.59;690512;28;22383;-72
2022/02/22 00:26:44;;;;;;;669.33;633.78;;;;;;;6.38;67.44;99851.59;690298;28;44389;-72
2022/02/22 00:27:05;;;;;;;653.50;619.15;;;;;;;6.39;67.70;99855.09;688485;28;45324;-72
2022/02/22 00:27:26;;;;;;;687.03;650.13;;;;;;;6.39;67.51;99860.47;688611;28;1422;-72
2022/02/22 00:27:48;;;;;;;707.28;668.95;;;;;;;6.37;67.63;99857.13;687108;28;22396;-71
2022/02/22 00:28:09;;;;;;;701.50;663.58;;;;;;;6.36;67.54;99858.94;683969;28;46327;-71
2022/02/22 00:28:30;;;;;;;695.40;657.97;;;;;;;6.35;67.36;99853.75;685637;28;21536;-72
2022/02/22 00:28:51;;;;;;;717.60;678.42;;;;;;;6.36;67.61;99860.78;685501;28;23498;-72
2022/02/22 00:29:14;;;;;;;703.67;665.55;;;;;;;6.35;67.61;99859.13;686128;28;46327;-71
2022/02/22 00:29:35;;;;;;;675.13;639.20;;;;;;;6.36;67.63;99864.31;686063;28;46382;-72
2022/02/22 00:29:56;;;;;;;712.53;673.60;;;;;;;6.36;67.64;99867.00;687631;28;22389;-72
2022/02/22 00:30:18;;;;;;;724.75;684.95;;;;;;;6.37;67.55;99870.53;690610;28;22366;-71
2022/02/22 00:30:40;;;;;;;697.25;659.42;;;;;;;6.35;67.48;99864.47;690064;28;44500;-72
2022/02/22 00:31:01;;;;;;;523.80;497.23;;;;;;;6.41;67.47;99864.66;690503;28;45303;-71
2022/02/22 00:31:22;;;;;;;493.73;469.15;;;;;;;6.43;67.47;99868.00;690214;28;21531;-72
2022/02/22 00:31:43;;;;;;;468.50;445.30;;;;;;;6.41;67.35;99861.13;691095;28;21311;-71
2022/02/22 00:32:07;;;;;;;440.33;418.58;;;;;;;6.38;67.26;99866.81;688875;28;22389;-72
2022/02/22 00:32:29;;;;;;;453.85;431.33;;;;;;;6.38;67.38;99866.81;686454;28;113559;-71
2022/02/22 00:32:52;;;;;;;484.98;460.80;;;;;;;6.37;67.38;99867.84;689684;28;21527;-72
2022/02/22 00:33:13;;;;;;;511.48;485.60;;;;;;;6.35;67.50;99868.00;687879;28;67551;-71
2022/02/22 00:33:35;;;;;;;636.67;603.53;;;;;;;6.34;67.37;99866.34;689425;28;22436;-72
2022/02/22 00:33:56;;;;;;;658.08;623.35;;;;;;;6.36;67.48;99872.34;688099;28;45265;-71
2022/02/22 00:34:17;;;;;;;660.28;625.42;;;;;;;6.38;67.66;99873.03;690878;28;21510;-72
2022/02/22 00:34:38;;;;;;;665.58;630.35;;;;;;;6.41;67.59;99874.53;691494;28;9642;-72
2022/02/22 00:35:00;;;;;;;705.83;667.58;;;;;;;6.42;67.73;99874.34;690565;28;22391;-73
2022/02/22 00:35:21;;;;;;;693.67;656.38;;;;;;;6.46;67.63;99882.91;689931;28;44397;-72
2022/02/22 00:35:43;;;;;;;664.05;628.97;;;;;;;6.44;67.27;99880.41;690578;28;21569;-72
2022/02/22 00:36:04;;;;;;;657.63;622.95;;;;;;;6.42;67.45;99876.22;689873;28;46338;-72
2022/02/22 00:36:26;;;;;;;675.58;639.65;;;;;;;6.44;67.54;99884.91;690325;28;21564;-72
2022/02/22 00:36:47;;;;;;;678.75;642.60;;;;;;;6.46;67.56;99878.38;690410;28;46277;-72
2022/02/22 00:37:08;;;;;;;562.97;534.50;;;;;;;6.45;67.38;99875.88;690981;28;22405;-71
2022/02/22 00:37:29;;;;;;;514.80;489.27;;;;;;;6.43;67.12;99875.22;690596;28;22386;-72
2022/02/22 00:37:51;;;;;;;507.73;482.58;;;;;;;6.39;67.50;99887.28;690728;28;23356;-72
2022/02/22 00:38:12;;;;;;;483.02;459.27;;;;;;;6.39;67.71;99880.06;689165;28;67606;-72
2022/02/22 00:38:34;;;;;;;459.88;437.33;;;;;;;6.38;67.71;99881.09;690292;28;46285;-72
2022/02/22 00:38:55;;;;;;;438.75;417.33;;;;;;;6.38;67.77;99880.22;691087;28;22409;-72
2022/02/22 00:39:17;;;;;;;467.75;444.75;;;;;;;6.37;67.82;99881.25;691229;28;21535;-71
2022/02/22 00:39:38;;;;;;;469.23;446.15;;;;;;;6.36;67.77;99890.31;690341;28;44208;-71
2022/02/22 00:39:59;;;;;;;442.70;421.05;;;;;;;6.39;67.81;99884.59;691090;28;22172;-71
2022/02/22 00:40:20;;;;;;;420.05;399.60;;;;;;;6.39;67.83;99885.41;691102;28;21576;-72
2022/02/22 00:40:42;;;;;;;447.02;425.17;;;;;;;6.37;67.66;99882.09;691256;28;23360;-72
2022/02/22 00:41:03;;;;;;;439.13;417.67;;;;;;;6.36;68.00;99876.88;689904;28;46329;-71
2022/02/22 00:41:24;;;;;;;424.33;403.55;;;;;;;6.39;68.10;99877.38;689519;28;22411;-72
2022/02/22 00:41:45;;;;;;;427.23;406.35;;;;;;;6.40;67.77;99876.38;690918;28;22416;-71
2022/02/22 00:42:06;;;;;;;482.17;458.40;;;;;;;6.39;67.93;99888.09;691318;28;15304;-72
2022/02/22 00:42:28;;;;;;;511.60;486.20;;;;;;;6.38;67.75;99880.22;690415;28;46533;-71
2022/02/22 00:42:50;;;;;;;463.95;441.00;;;;;;;6.38;67.93;99888.28;688111;28;45144;-71
2022/02/22 00:43:11;;;;;;;484.85;460.75;;;;;;;6.38;67.92;99883.78;689358;28;21557;-71
2022/02/22 00:43:32;;;;;;;522.13;496.10;;;;;;;6.35;67.82;99883.25;689293;28;23477;-72
2022/02/22 00:43:54;;;;;;;493.35;468.90;;;;;;;6.34;67.84;99890.47;689508;28;22460;-72
2022/02/22 00:44:15;;;;;;;460.35;437.55;;;;;;;6.33;67.73;99888.78;688543;28;46970;-71
2022/02/22 00:44:36;;;;;;;435.80;414.38;;;;;;;6.33;67.70;99891.47;689069;28;22620;-71
2022/02/22 00:44:57;;;;;;;486.75;462.35;;;;;;;6.32;67.79;99882.59;688994;28;21524;-71
2022/02/22 00:45:18;;;;;;;471.17;447.90;;;;;;;6.33;67.78;99902.19;689669;28;22363;-71
2022/02/22 00:45:40;;;;;;;451.45;429.27;;;;;;;6.33;67.84;99891.47;688916;28;22409;-71
2022/02/22 00:46:01;;;;;;;448.02;425.98;;;;;;;6.34;68.12;99882.41;688348;28;46233;-72
2022/02/22 00:46:22;;;;;;;481.60;457.80;;;;;;;6.39;67.82;99893.47;688619;28;22449;-72
2022/02/22 00:46:43;;;;;;;481.90;458.05;;;;;;;6.39;67.71;99889.97;689432;28;22404;-72
2022/02/22 00:47:07;;;;;;;449.17;427.08;;;;;;;6.38;67.87;99888.28;689473;28;21584;-72
2022/02/22 00:47:28;;;;;;;404.85;385.13;;;;;;;6.37;67.70;99905.41;689044;28;84768;-72
2022/02/22 00:47:49;;;;;;;423.45;402.75;;;;;;;6.37;67.94;99898.19;691115;28;22426;-71
2022/02/22 00:48:10;;;;;;;435.63;414.23;;;;;;;6.38;68.06;99893.63;691215;28;22389;-71
2022/02/22 00:48:31;;;;;;;412.23;392.13;;;;;;;6.39;68.06;99896.16;690910;28;22398;-72
2022/02/22 00:48:53;;;;;;;414.20;393.98;;;;;;;6.39;67.91;99892.63;691100;28;22228;-72
2022/02/22 00:49:15;;;;;;;437.63;416.17;;;;;;;6.37;67.64;99898.19;690342;28;43738;-71
2022/02/22 00:49:36;;;;;;;433.38;412.13;;;;;;;6.38;67.94;99899.00;689993;28;46479;-71
2022/02/22 00:49:57;;;;;;;431.48;410.30;;;;;;;6.38;68.04;99907.91;690707;28;16992;-72
2022/02/22 00:50:19;;;;;;;461.55;438.80;;;;;;;6.38;68.07;99910.59;690735;28;23487;-72
2022/02/22 00:50:41;;;;;;;450.50;428.42;;;;;;;6.41;67.77;99886.09;689437;28;69403;-71
2022/02/22 00:51:02;;;;;;;435.65;414.27;;;;;;;6.43;67.98;99902.84;691102;28;21560;-71
2022/02/22 00:51:23;;;;;;;428.95;407.88;;;;;;;6.44;68.02;99901.88;690120;28;22261;-72
2022/02/22 00:51:45;;;;;;;429.70;408.65;;;;;;;6.43;67.65;99902.03;691134;28;21405;-72
2022/02/22 00:52:06;;;;;;;444.33;422.48;;;;;;;6.40;67.91;99907.75;689909;28;44371;-72
2022/02/22 00:52:28;;;;;;;446.52;424.52;;;;;;;6.34;67.88;99895.84;690269;28;46318;-71
2022/02/22 00:52:49;;;;;;;431.25;410.08;;;;;;;6.36;67.87;99895.66;690295;28;44392;-72
2022/02/22 00:53:11;;;;;;;455.35;432.88;;;;;;;6.35;67.91;99888.63;691104;28;23450;-72
2022/02/22 00:53:32;;;;;;;442.02;420.25;;;;;;;6.34;68.08;99897.69;690472;28;45262;-72
2022/02/22 00:53:54;;;;;;;430.45;409.30;;;;;;;6.34;68.11;99903.88;689875;28;24370;-72
2022/02/22 00:54:16;;;;;;;422.05;401.35;;;;;;;6.32;68.30;99893.31;690742;28;22413;-72
2022/02/22 00:54:37;;;;;;;454.25;431.83;;;;;;;6.38;68.45;99877.53;690252;28;44473;-71
2022/02/22 00:54:59;;;;;;;448.60;426.55;;;;;;;6.42;68.16;99889.63;689719;28;45323;-72
2022/02/22 00:55:20;;;;;;;406.77;386.92;;;;;;;6.41;68.04;99899.53;690427;28;44367;-71
2022/02/22 00:55:42;;;;;;;323.27;307.58;;;;;;;6.43;68.05;99905.53;690294;28;22305;-71
2022/02/22 00:56:04;;;;;;;405.05;385.05;;;;;;;6.43;67.90;99902.03;690050;28;46280;-71
2022/02/22 00:56:25;;;;;;;395.70;376.45;;;;;;;6.42;68.17;99892.31;690189;28;22415;-72
2022/02/22 00:56:46;;;;;;;415.90;395.55;;;;;;;6.48;68.06;99899.66;691410;28;21531;-72
2022/02/22 00:57:08;;;;;;;435.70;414.35;;;;;;;6.48;67.82;99905.84;690465;28;22402;-72
2022/02/22 00:57:29;;;;;;;475.48;451.92;;;;;;;6.46;67.90;99902.53;690241;28;45268;-71
2022/02/22 00:57:50;;;;;;;459.42;436.75;;;;;;;6.47;67.83;99901.53;691160;28;22421;-72
2022/02/22 00:58:11;;;;;;;436.17;414.75;;;;;;;6.47;67.79;99906.88;690771;28;24256;-72
2022/02/22 00:58:32;;;;;;;428.40;407.42;;;;;;;6.45;67.85;99900.84;687646;28;22387;-72
2022/02/22 00:58:54;;;;;;;459.25;436.60;;;;;;;6.46;68.09;99910.56;687195;28;47078;-71
2022/02/22 00:59:15;;;;;;;425.13;404.33;;;;;;;6.48;67.80;99915.75;687041;28;45198;-71
2022/02/22 00:59:37;;;;;;;401.35;381.80;;;;;;;6.47;67.84;99901.53;687442;28;21544;-72
2022/02/22 00:59:58;;;;;;;419.42;398.88;;;;;;;6.50;67.80;99903.00;687841;28;22397;-71
2022/02/22 01:00:20;;;;;;;419.50;398.98;;;;;;;6.47;67.70;99909.56;688720;28;22260;-71
2022/02/22 01:00:42;;;;;;;467.40;444.35;;;;;;;6.46;67.91;99913.25;689575;28;66869;-71
2022/02/22 01:01:03;;;;;;;470.25;447.08;;;;;;;6.47;68.03;99901.53;690948;28;22391;-72
2022/02/22 01:01:24;;;;;;;433.98;412.73;;;;;;;6.51;67.70;99911.91;689908;28;21303;-71
2022/02/22 01:01:46;;;;;;;422.65;402.05;;;;;;;6.53;67.94;99913.41;691016;28;22387;-72
2022/02/22 01:02:08;;;;;;;426.90;406.05;;;;;;;6.54;67.64;99903.53;690005;28;46282;-71
2022/02/22 01:02:29;;;;;;;456.40;434.02;;;;;;;6.52;67.92;99914.44;690152;28;44406;-71
2022/02/22 01:02:51;;;;;;;442.38;420.73;;;;;;;6.55;67.66;99919.44;690982;28;23481;-71
2022/02/22 01:03:13;;;;;;;419.65;399.20;;;;;;;6.55;67.67;99908.72;688992;28;69375;-72
2022/02/22 01:03:34;;;;;;;406.45;386.75;;;;;;;6.55;67.57;99905.19;690178;28;46261;-72
2022/02/22 01:03:56;;;;;;;426.60;405.73;;;;;;;6.51;67.62;99911.91;686320;28;21544;-72
2022/02/22 01:04:17;;;;;;;415.58;395.17;;;;;;;6.52;67.86;99913.56;687024;28;22397;-72
2022/02/22 01:04:39;;;;;;;393.85;374.70;;;;;;;6.52;67.83;99926.97;686773;28;23444;-71
2022/02/22 01:05:00;;;;;;;398.13;378.75;;;;;;;6.49;67.81;99918.28;685693;28;46353;-71
2022/02/22 01:05:22;;;;;;;396.52;377.20;;;;;;;6.48;68.02;99916.59;685706;28;46269;-71
2022/02/22 01:05:43;;;;;;;399.45;380.02;;;;;;;6.46;68.05;99909.75;687355;28;21540;-72
2022/02/22 01:06:05;;;;;;;426.45;405.48;;;;;;;6.47;68.24;99912.25;690501;28;23356;-71
2022/02/22 01:06:26;;;;;;;421.08;400.48;;;;;;;6.45;67.96;99913.41;689322;28;44462;-72
2022/02/22 01:06:47;;;;;;;430.40;409.25;;;;;;;6.45;68.24;99913.41;690934;28;23477;-71
2022/02/22 01:07:08;;;;;;;453.67;431.30;;;;;;;6.44;68.29;99917.09;691089;28;22404;-71
2022/02/22 01:07:30;;;;;;;432.63;411.35;;;;;;;6.46;68.13;99918.63;690861;28;23448;-71
2022/02/22 01:07:51;;;;;;;423.63;402.88;;;;;;;6.44;68.17;99920.63;689841;28;44166;-71
2022/02/22 01:08:12;;;;;;;436.33;414.92;;;;;;;6.41;68.06;99920.97;690827;28;22431;-72
2022/02/22 01:08:33;;;;;;;445.80;423.88;;;;;;;6.39;68.04;99920.28;688462;28;22405;-71
2022/02/22 01:08:55;;;;;;;434.00;412.73;;;;;;;6.39;68.43;99922.16;689246;28;23458;-72
2022/02/22 01:09:16;;;;;;;439.45;417.85;;;;;;;6.38;68.21;99921.31;688666;28;46346;-71
2022/02/22 01:09:37;;;;;;;466.73;443.73;;;;;;;6.40;68.44;99921.97;689369;28;19532;-71
2022/02/22 01:09:58;;;;;;;479.50;455.70;;;;;;;6.40;68.34;99931.88;689451;28;22353;-71
2022/02/22 01:10:20;;;;;;;483.00;458.98;;;;;;;6.40;68.47;99924.66;688757;28;46457;-71
2022/02/22 01:10:50;;;;;;;514.33;488.65;;;;;;;6.41;68.53;99929.03;689847;28;46313;-71
2022/02/22 01:11:28;;;;;;;465.70;442.73;;;;;;;6.42;68.55;99919.13;685990;28;138716;-72
2022/02/22 01:11:51;;;;;;;440.88;419.17;;;;;;;6.41;68.50;99928.16;691019;28;22370;-71
2022/02/22 01:12:12;;;;;;;468.45;445.33;;;;;;;6.41;68.37;99929.03;689752;28;46066;-72
2022/02/22 01:12:34;;;;;;;470.77;447.52;;;;;;;6.42;68.39;99928.00;690304;28;46062;-71
2022/02/22 01:12:55;;;;;;;460.20;437.52;;;;;;;6.39;68.28;99933.69;690605;28;23740;-72
2022/02/22 01:13:17;;;;;;;492.25;467.80;;;;;;;6.39;68.24;99927.50;690470;28;21533;-71
2022/02/22 01:13:38;;;;;;;499.63;474.85;;;;;;;6.38;68.49;99917.78;690235;28;45299;-71
2022/02/22 01:13:59;;;;;;;473.42;449.98;;;;;;;6.38;68.30;99932.03;690865;28;23464;-72
2022/02/22 01:14:20;;;;;;;452.25;429.98;;;;;;;6.38;68.70;99931.19;691302;28;21542;-71
2022/02/22 01:14:43;;;;;;;467.92;444.80;;;;;;;6.38;68.66;99934.72;691083;28;21549;-72
2022/02/22 01:15:06;;;;;;;455.00;432.58;;;;;;;6.39;68.68;99938.25;689290;28;67505;-72
2022/02/22 01:15:27;;;;;;;434.80;413.38;;;;;;;6.39;68.49;99936.38;689684;28;67459;-71
2022/02/22 01:15:48;;;;;;;465.65;442.60;;;;;;;6.39;68.67;99941.75;689571;28;23870;-72
2022/02/22 01:16:10;;;;;;;421.17;400.38;;;;;;;6.41;68.76;99929.03;689643;28;44409;-71
2022/02/22 01:16:32;;;;;;;383.13;364.40;;;;;;;6.41;68.48;99925.47;689175;28;44415;-72
2022/02/22 01:16:53;;;;;;;459.88;437.30;;;;;;;6.39;68.67;99933.69;691147;28;23787;-71
2022/02/22 01:17:15;;;;;;;461.00;438.30;;;;;;;6.39;68.63;99944.44;691147;28;23493;-72
2022/02/22 01:17:37;;;;;;;461.13;438.40;;;;;;;6.41;68.64;99920.13;689172;28;66149;-71
2022/02/22 01:17:58;;;;;;;449.95;427.77;;;;;;;6.41;68.50;99928.16;685399;28;45249;-71
2022/02/22 01:18:20;;;;;;;504.80;479.73;;;;;;;6.43;68.74;99921.63;686899;28;22393;-72
2022/02/22 01:18:41;;;;;;;520.60;494.75;;;;;;;6.48;68.25;99919.28;686738;28;22409;-72
2022/02/22 01:19:04;;;;;;;511.95;486.55;;;;;;;6.48;68.21;99923.81;686796;28;23453;-71
2022/02/22 01:19:25;;;;;;;554.00;526.22;;;;;;;6.46;68.34;99936.56;684899;28;69427;-72
2022/02/22 01:19:46;;;;;;;533.80;507.15;;;;;;;6.45;68.16;99927.66;687623;28;22409;-71
2022/02/22 01:20:10;;;;;;;529.33;502.90;;;;;;;6.43;68.23;99944.94;689932;28;44451;-72
2022/02/22 01:20:31;;;;;;;572.80;543.83;;;;;;;6.42;68.43;99928.00;688969;28;69533;-72
2022/02/22 01:20:52;;;;;;;559.35;531.13;;;;;;;6.41;68.49;99928.16;690729;28;23443;-72
2022/02/22 01:21:13;;;;;;;529.22;502.73;;;;;;;6.40;68.51;99934.56;690756;28;22392;-72
2022/02/22 01:21:35;;;;;;;538.28;511.33;;;;;;;6.39;68.61;99933.69;690354;28;21524;-71
2022/02/22 01:21:57;;;;;;;593.45;563.13;;;;;;;6.40;68.58;99940.75;689479;28;69243;-72
2022/02/22 01:22:18;;;;;;;567.97;539.22;;;;;;;6.40;68.79;99937.25;690943;28;22421;-72
2022/02/22 01:22:40;;;;;;;554.33;526.50;;;;;;;6.40;68.89;99948.78;691059;28;21394;-71
2022/02/22 01:23:02;;;;;;;551.63;523.83;;;;;;;6.39;68.66;99928.34;686909;28;44190;-72
2022/02/22 01:23:23;;;;;;;584.65;554.88;;;;;;;6.40;68.68;99940.75;686523;28;69513;-72
2022/02/22 01:23:44;;;;;;;611.60;580.22;;;;;;;6.42;68.80;99930.69;687478;28;44401;-71
2022/02/22 01:24:06;;;;;;;593.75;563.50;;;;;;;6.45;68.59;99935.69;687879;28;22404;-72
2022/02/22 01:24:28;;;;;;;587.55;557.63;;;;;;;6.46;68.54;99929.34;687824;28;22410;-72
2022/02/22 01:24:49;;;;;;;614.83;583.17;;;;;;;6.46;68.66;99932.03;685114;28;44364;-72
2022/02/22 01:25:11;;;;;;;528.08;501.48;;;;;;;6.45;68.48;99930.34;688097;28;22395;-71
2022/02/22 01:25:32;;;;;;;397.15;377.83;;;;;;;6.45;68.54;99945.59;687352;28;45248;-72
2022/02/22 01:25:56;;;;;;;405.88;386.05;;;;;;;6.49;68.36;99926.31;687692;28;21256;-71
2022/02/22 01:26:17;;;;;;;405.67;385.83;;;;;;;6.53;68.40;99934.84;684696;28;92270;-72
2022/02/22 01:26:38;;;;;;;472.65;449.33;;;;;;;6.55;68.23;99934.69;688834;28;22392;-71
2022/02/22 01:26:59;;;;;;;456.15;433.65;;;;;;;6.55;68.04;99940.06;691166;28;21586;-71
2022/02/22 01:27:21;;;;;;;447.63;425.63;;;;;;;6.56;68.32;99934.53;691194;28;22466;-72
2022/02/22 01:27:42;;;;;;;520.63;494.67;;;;;;;6.53;68.05;99934.84;689733;28;45292;-71
2022/02/22 01:28:09;;;;;;;561.28;533.08;;;;;;;6.51;68.06;99936.88;689114;28;59871;-72
2022/02/22 01:28:31;;;;;;;544.35;517.10;;;;;;;6.49;68.22;99936.22;690249;28;22230;-71
2022/02/22 01:28:53;;;;;;;534.63;507.95;;;;;;;6.49;68.34;99945.09;690320;28;22538;-72
2022/02/22 01:29:14;;;;;;;581.97;552.53;;;;;;;6.48;68.31;99939.91;689883;28;44136;-72
2022/02/22 01:29:35;;;;;;;568.92;540.38;;;;;;;6.45;68.44;99949.13;690846;28;22413;-71
2022/02/22 01:29:56;;;;;;;551.80;524.25;;;;;;;6.45;68.46;99951.81;691057;28;22347;-71
2022/02/22 01:30:18;;;;;;;567.80;539.22;;;;;;;6.45;68.52;99945.59;690764;28;23504;-72
2022/02/22 01:30:39;;;;;;;597.08;566.78;;;;;;;6.45;68.59;99949.13;690111;28;45214;-72
2022/02/22 01:31:00;;;;;;;578.42;549.30;;;;;;;6.44;68.35;99942.09;690888;28;21525;-72
2022/02/22 01:31:21;;;;;;;556.75;528.85;;;;;;;6.45;68.50;99951.81;690384;28;23466;-72
2022/02/22 01:31:43;;;;;;;542.67;515.63;;;;;;;6.46;68.35;99947.28;690800;28;23477;-72
2022/02/22 01:32:05;;;;;;;574.90;545.95;;;;;;;6.49;68.46;99937.06;689254;28;67500;-71
2022/02/22 01:32:28;;;;;;;546.92;519.53;;;;;;;6.49;68.48;99952.31;690046;28;45254;-72
2022/02/22 01:32:50;;;;;;;477.05;453.52;;;;;;;6.47;68.46;99955.16;689789;28;46480;-72
2022/02/22 01:33:11;;;;;;;508.95;483.63;;;;;;;6.49;68.51;99942.41;690069;28;45338;-71
2022/02/22 01:33:32;;;;;;;574.42;545.42;;;;;;;6.51;68.17;99946.78;691012;28;22288;-71
2022/02/22 01:33:54;;;;;;;562.88;534.53;;;;;;;6.49;68.49;99955.81;690827;28;21335;-71
2022/02/22 01:34:16;;;;;;;577.60;548.28;;;;;;;6.49;68.43;99957.69;690434;28;44184;-71
2022/02/22 01:34:37;;;;;;;613.42;582.00;;;;;;;6.48;68.53;99967.56;689730;28;45215;-72
2022/02/22 01:34:58;;;;;;;595.05;564.85;;;;;;;6.47;68.26;99955.16;690588;28;23533;-72
2022/02/22 01:35:19;;;;;;;573.53;544.63;;;;;;;6.47;68.57;99963.22;690793;28;22442;-72
2022/02/22 01:35:41;;;;;;;570.03;541.30;;;;;;;6.49;68.66;99963.88;690538;28;21302;-72
2022/02/22 01:36:03;;;;;;;596.35;565.92;;;;;;;6.48;68.63;99953.31;689809;28;44372;-71
2022/02/22 01:36:25;;;;;;;589.17;559.20;;;;;;;6.51;68.59;99962.88;689006;28;46670;-72
2022/02/22 01:36:46;;;;;;;608.60;577.35;;;;;;;6.51;68.57;99957.53;685299;28;44370;-71
2022/02/22 01:37:08;;;;;;;608.33;577.15;;;;;;;6.48;68.51;99959.50;686642;28;22403;-72
2022/02/22 01:37:29;;;;;;;609.30;578.03;;;;;;;6.47;68.29;99957.00;686048;28;44365;-71
2022/02/22 01:37:50;;;;;;;580.83;551.35;;;;;;;6.48;68.36;99969.41;685930;28;45243;-72
2022/02/22 01:38:11;;;;;;;597.58;566.97;;;;;;;6.48;68.44;99972.09;686904;28;21343;-71
2022/02/22 01:38:33;;;;;;;585.05;555.38;;;;;;;6.46;68.28;99958.84;687204;28;22396;-72
2022/02/22 01:38:55;;;;;;;562.42;533.97;;;;;;;6.48;68.34;99964.03;690317;28;44151;-72
2022/02/22 01:39:16;;;;;;;538.13;511.27;;;;;;;6.47;68.38;99965.03;687703;28;22407;-72